sensor_id;sensor_type;location;lat;lon;timestamp;P1;durP1;ratioP1;P2;durP2;ratioP2
77384;SDS011;66443;49.122;8.346;2023-04-03T00:00:51;2.80;;;2.30;;
77384;SDS011;66443;49.122;8.346;2023-04-03T00:03:17;2.47;;;2.27;;
77384;SDS011;66443;49.122;8.346;2023-04-03T00:05:43;2.20;;;2.00;;
77384;SDS011;66443;49.122;8.346;2023-04-03T00:08:08;2.10;;;1.90;;
77384;SDS011;66443;49.122;8.346;2023-04-03T00:10:34;2.00;;;1.90;;
77384;SDS011;66443;49.122;8.346;2023-04-03T00:13:00;2.27;;;2.07;;
77384;SDS011;66443;49.122;8.346;2023-04-03T00:15:25;2.23;;;2.07;;
77384;SDS011;66443;49.122;8.346;2023-04-03T00:17:50;2.37;;;2.17;;
77384;SDS011;66443;49.122;8.346;2023-04-03T00:20:15;2.00;;;1.90;;
77384;SDS011;66443;49.122;8.346;2023-04-03T00:22:40;2.50;;;2.30;;
77384;SDS011;66443;49.122;8.346;2023-04-03T00:25:06;2.50;;;2.30;;
77384;SDS011;66443;49.122;8.346;2023-04-03T00:27:31;2.93;;;2.63;;
77384;SDS011;66443;49.122;8.346;2023-04-03T00:29:56;4.30;;;2.17;;
77384;SDS011;66443;49.122;8.346;2023-04-03T00:32:21;2.73;;;2.20;;
77384;SDS011;66443;49.122;8.346;2023-04-03T00:34:46;2.27;;;2.07;;
77384;SDS011;66443;49.122;8.346;2023-04-03T00:37:12;2.37;;;2.23;;
77384;SDS011;66443;49.122;8.346;2023-04-03T00:39:37;3.07;;;2.47;;
77384;SDS011;66443;49.122;8.346;2023-04-03T00:42:02;2.47;;;2.27;;
77384;SDS011;66443;49.122;8.346;2023-04-03T00:46:52;2.67;;;1.70;;
77384;SDS011;66443;49.122;8.346;2023-04-03T00:49:17;3.03;;;2.20;;
77384;SDS011;66443;49.122;8.346;2023-04-03T00:51:43;3.40;;;2.30;;
77384;SDS011;66443;49.122;8.346;2023-04-03T00:54:08;2.57;;;2.10;;
77384;SDS011;66443;49.122;8.346;2023-04-03T00:56:33;2.40;;;2.20;;
77384;SDS011;66443;49.122;8.346;2023-04-03T00:59:44;2.70;;;2.17;;
77384;SDS011;66443;49.122;8.346;2023-04-03T01:01:51;2.50;;;2.27;;
77384;SDS011;66443;49.122;8.346;2023-04-03T01:06:52;2.07;;;1.83;;
77384;SDS011;66443;49.122;8.346;2023-04-03T01:09:18;3.43;;;2.00;;
77384;SDS011;66443;49.122;8.346;2023-04-03T01:11:43;2.17;;;2.00;;
77384;SDS011;66443;49.122;8.346;2023-04-03T01:14:08;3.10;;;2.23;;
77384;SDS011;66443;49.122;8.346;2023-04-03T01:16:33;2.50;;;2.30;;
77384;SDS011;66443;49.122;8.346;2023-04-03T01:19:00;3.97;;;2.17;;
77384;SDS011;66443;49.122;8.346;2023-04-03T01:26:32;2.13;;;1.97;;
77384;SDS011;66443;49.122;8.346;2023-04-03T01:28:58;2.17;;;1.97;;
77384;SDS011;66443;49.122;8.346;2023-04-03T01:31:31;2.43;;;1.97;;
77384;SDS011;66443;49.122;8.346;2023-04-03T01:33:58;2.00;;;1.90;;
77384;SDS011;66443;49.122;8.346;2023-04-03T01:36:25;6.03;;;2.40;;
77384;SDS011;66443;49.122;8.346;2023-04-03T01:38:51;2.93;;;2.03;;
77384;SDS011;66443;49.122;8.346;2023-04-03T01:41:16;2.83;;;2.10;;
77384;SDS011;66443;49.122;8.346;2023-04-03T01:43:42;2.50;;;2.30;;
77384;SDS011;66443;49.122;8.346;2023-04-03T01:46:07;2.50;;;2.27;;
77384;SDS011;66443;49.122;8.346;2023-04-03T01:48:32;3.03;;;2.03;;
77384;SDS011;66443;49.122;8.346;2023-04-03T01:50:58;3.27;;;2.00;;
77384;SDS011;66443;49.122;8.346;2023-04-03T01:53:23;2.13;;;1.80;;
77384;SDS011;66443;49.122;8.346;2023-04-03T01:55:48;2.43;;;2.23;;
77384;SDS011;66443;49.122;8.346;2023-04-03T01:58:13;2.40;;;2.20;;
77384;SDS011;66443;49.122;8.346;2023-04-03T02:00:38;2.57;;;2.07;;
77384;SDS011;66443;49.122;8.346;2023-04-03T02:03:03;2.20;;;2.00;;
77384;SDS011;66443;49.122;8.346;2023-04-03T02:05:29;2.20;;;2.00;;
77384;SDS011;66443;49.122;8.346;2023-04-03T02:07:54;1.90;;;1.80;;
77384;SDS011;66443;49.122;8.346;2023-04-03T02:10:19;2.57;;;1.93;;
77384;SDS011;66443;49.122;8.346;2023-04-03T02:12:45;2.10;;;2.00;;
77384;SDS011;66443;49.122;8.346;2023-04-03T02:15:10;5.10;;;1.80;;
77384;SDS011;66443;49.122;8.346;2023-04-03T02:17:35;2.20;;;2.00;;
77384;SDS011;66443;49.122;8.346;2023-04-03T02:20:00;2.20;;;2.00;;
77384;SDS011;66443;49.122;8.346;2023-04-03T02:22:25;2.30;;;2.10;;
77384;SDS011;66443;49.122;8.346;2023-04-03T02:24:51;6.47;;;2.60;;
77384;SDS011;66443;49.122;8.346;2023-04-03T02:27:16;1.97;;;1.83;;
77384;SDS011;66443;49.122;8.346;2023-04-03T02:29:42;3.50;;;2.23;;
77384;SDS011;66443;49.122;8.346;2023-04-03T02:32:07;2.27;;;1.93;;
77384;SDS011;66443;49.122;8.346;2023-04-03T02:34:32;2.90;;;2.03;;
77384;SDS011;66443;49.122;8.346;2023-04-03T02:36:57;2.00;;;1.90;;
77384;SDS011;66443;49.122;8.346;2023-04-03T02:39:22;3.47;;;2.03;;
77384;SDS011;66443;49.122;8.346;2023-04-03T02:41:48;1.90;;;1.80;;
77384;SDS011;66443;49.122;8.346;2023-04-03T02:44:13;1.67;;;1.57;;
77384;SDS011;66443;49.122;8.346;2023-04-03T02:46:38;2.53;;;1.80;;
77384;SDS011;66443;49.122;8.346;2023-04-03T02:49:03;2.53;;;1.80;;
77384;SDS011;66443;49.122;8.346;2023-04-03T02:51:29;1.90;;;1.67;;
77384;SDS011;66443;49.122;8.346;2023-04-03T02:53:54;2.80;;;2.13;;
77384;SDS011;66443;49.122;8.346;2023-04-03T02:56:19;3.00;;;1.83;;
77384;SDS011;66443;49.122;8.346;2023-04-03T02:58:45;2.13;;;2.00;;
77384;SDS011;66443;49.122;8.346;2023-04-03T03:01:10;2.23;;;2.03;;
77384;SDS011;66443;49.122;8.346;2023-04-03T03:03:35;3.53;;;1.80;;
77384;SDS011;66443;49.122;8.346;2023-04-03T03:06:04;4.43;;;2.07;;
77384;SDS011;66443;49.122;8.346;2023-04-03T03:08:30;1.77;;;1.50;;
77384;SDS011;66443;49.122;8.346;2023-04-03T03:10:55;2.07;;;1.90;;
77384;SDS011;66443;49.122;8.346;2023-04-03T03:13:20;2.37;;;1.90;;
77384;SDS011;66443;49.122;8.346;2023-04-03T03:15:46;3.40;;;2.10;;
77384;SDS011;66443;49.122;8.346;2023-04-03T03:18:11;1.53;;;1.43;;
77384;SDS011;66443;49.122;8.346;2023-04-03T03:20:36;3.10;;;1.87;;
77384;SDS011;66443;49.122;8.346;2023-04-03T03:23:04;2.03;;;1.90;;
77384;SDS011;66443;49.122;8.346;2023-04-03T03:25:29;2.10;;;1.90;;
77384;SDS011;66443;49.122;8.346;2023-04-03T03:27:54;1.63;;;1.53;;
77384;SDS011;66443;49.122;8.346;2023-04-03T03:30:20;2.33;;;2.00;;
77384;SDS011;66443;49.122;8.346;2023-04-03T03:32:45;2.00;;;1.80;;
77384;SDS011;66443;49.122;8.346;2023-04-03T03:35:10;2.00;;;1.83;;
77384;SDS011;66443;49.122;8.346;2023-04-03T03:37:36;3.67;;;2.23;;
77384;SDS011;66443;49.122;8.346;2023-04-03T03:40:03;2.00;;;1.80;;
77384;SDS011;66443;49.122;8.346;2023-04-03T03:42:29;5.27;;;3.43;;
77384;SDS011;66443;49.122;8.346;2023-04-03T03:44:54;3.40;;;2.33;;
77384;SDS011;66443;49.122;8.346;2023-04-03T03:47:19;2.00;;;1.83;;
77384;SDS011;66443;49.122;8.346;2023-04-03T03:49:45;3.27;;;2.20;;
77384;SDS011;66443;49.122;8.346;2023-04-03T03:52:10;2.33;;;1.83;;
77384;SDS011;66443;49.122;8.346;2023-04-03T03:54:35;1.90;;;1.80;;
77384;SDS011;66443;49.122;8.346;2023-04-03T03:57:01;2.70;;;2.03;;
77384;SDS011;66443;49.122;8.346;2023-04-03T03:59:26;2.05;;;1.88;;
77384;SDS011;66443;49.122;8.346;2023-04-03T04:01:51;2.17;;;2.03;;
77384;SDS011;66443;49.122;8.346;2023-04-03T04:04:16;3.30;;;2.07;;
77384;SDS011;66443;49.122;8.346;2023-04-03T04:06:41;2.30;;;2.10;;
77384;SDS011;66443;49.122;8.346;2023-04-03T04:09:06;2.63;;;2.43;;
77384;SDS011;66443;49.122;8.346;2023-04-03T04:11:32;3.17;;;2.30;;
77384;SDS011;66443;49.122;8.346;2023-04-03T04:13:58;2.50;;;2.30;;
77384;SDS011;66443;49.122;8.346;2023-04-03T04:16:23;2.17;;;1.83;;
77384;SDS011;66443;49.122;8.346;2023-04-03T04:18:48;2.33;;;2.13;;
77384;SDS011;66443;49.122;8.346;2023-04-03T04:21:13;2.50;;;2.23;;
77384;SDS011;66443;49.122;8.346;2023-04-03T04:23:38;3.03;;;2.50;;
77384;SDS011;66443;49.122;8.346;2023-04-03T04:26:04;2.23;;;2.03;;
77384;SDS011;66443;49.122;8.346;2023-04-03T04:28:29;2.90;;;2.60;;
77384;SDS011;66443;49.122;8.346;2023-04-03T04:30:54;2.20;;;2.00;;
77384;SDS011;66443;49.122;8.346;2023-04-03T04:33:19;2.10;;;2.00;;
77384;SDS011;66443;49.122;8.346;2023-04-03T04:35:46;2.50;;;2.30;;
77384;SDS011;66443;49.122;8.346;2023-04-03T04:38:12;2.93;;;2.20;;
77384;SDS011;66443;49.122;8.346;2023-04-03T04:40:37;5.10;;;2.50;;
77384;SDS011;66443;49.122;8.346;2023-04-03T04:43:02;2.60;;;2.40;;
77384;SDS011;66443;49.122;8.346;2023-04-03T04:45:28;2.27;;;2.10;;
77384;SDS011;66443;49.122;8.346;2023-04-03T04:47:54;2.43;;;2.07;;
77384;SDS011;66443;49.122;8.346;2023-04-03T04:50:20;2.10;;;1.70;;
77384;SDS011;66443;49.122;8.346;2023-04-03T04:52:45;2.20;;;1.93;;
77384;SDS011;66443;49.122;8.346;2023-04-03T04:55:10;2.10;;;2.00;;
77384;SDS011;66443;49.122;8.346;2023-04-03T04:57:35;2.27;;;2.07;;
77384;SDS011;66443;49.122;8.346;2023-04-03T05:00:02;4.20;;;1.53;;
77384;SDS011;66443;49.122;8.346;2023-04-03T05:02:27;2.37;;;2.13;;
77384;SDS011;66443;49.122;8.346;2023-04-03T05:04:53;2.87;;;2.33;;
77384;SDS011;66443;49.122;8.346;2023-04-03T05:07:18;2.53;;;2.10;;
77384;SDS011;66443;49.122;8.346;2023-04-03T05:09:43;2.97;;;2.47;;
77384;SDS011;66443;49.122;8.346;2023-04-03T05:12:08;3.17;;;2.00;;
77384;SDS011;66443;49.122;8.346;2023-04-03T05:14:33;3.63;;;2.47;;
77384;SDS011;66443;49.122;8.346;2023-04-03T05:16:58;3.57;;;2.57;;
77384;SDS011;66443;49.122;8.346;2023-04-03T05:19:24;3.07;;;2.20;;
77384;SDS011;66443;49.122;8.346;2023-04-03T05:21:49;2.80;;;2.60;;
77384;SDS011;66443;49.122;8.346;2023-04-03T05:24:14;4.43;;;2.10;;
77384;SDS011;66443;49.122;8.346;2023-04-03T05:26:40;2.47;;;2.27;;
77384;SDS011;66443;49.122;8.346;2023-04-03T05:29:05;2.80;;;2.60;;
77384;SDS011;66443;49.122;8.346;2023-04-03T05:31:31;2.50;;;2.30;;
77384;SDS011;66443;49.122;8.346;2023-04-03T05:33:56;2.70;;;2.03;;
77384;SDS011;66443;49.122;8.346;2023-04-03T05:36:21;3.03;;;2.30;;
77384;SDS011;66443;49.122;8.346;2023-04-03T05:38:47;4.97;;;2.73;;
77384;SDS011;66443;49.122;8.346;2023-04-03T05:41:12;2.30;;;2.10;;
77384;SDS011;66443;49.122;8.346;2023-04-03T05:43:37;3.57;;;2.30;;
77384;SDS011;66443;49.122;8.346;2023-04-03T05:46:03;2.90;;;2.20;;
77384;SDS011;66443;49.122;8.346;2023-04-03T05:48:29;2.20;;;2.10;;
77384;SDS011;66443;49.122;8.346;2023-04-03T05:50:54;2.27;;;2.07;;
77384;SDS011;66443;49.122;8.346;2023-04-03T05:53:25;2.73;;;2.53;;
77384;SDS011;66443;49.122;8.346;2023-04-03T05:55:51;2.43;;;2.20;;
77384;SDS011;66443;49.122;8.346;2023-04-03T05:58:17;2.90;;;2.20;;
77384;SDS011;66443;49.122;8.346;2023-04-03T06:00:42;2.42;;;2.25;;
77384;SDS011;66443;49.122;8.346;2023-04-03T06:03:07;3.17;;;1.97;;
77384;SDS011;66443;49.122;8.346;2023-04-03T06:05:32;1.90;;;1.80;;
77384;SDS011;66443;49.122;8.346;2023-04-03T06:07:57;3.13;;;2.03;;
77384;SDS011;66443;49.122;8.346;2023-04-03T06:10:23;2.80;;;2.50;;
77384;SDS011;66443;49.122;8.346;2023-04-03T06:12:48;2.20;;;2.00;;
77384;SDS011;66443;49.122;8.346;2023-04-03T06:15:13;3.67;;;2.20;;
77384;SDS011;66443;49.122;8.346;2023-04-03T06:17:38;3.37;;;2.10;;
77384;SDS011;66443;49.122;8.346;2023-04-03T06:20:03;2.07;;;1.90;;
77384;SDS011;66443;49.122;8.346;2023-04-03T06:22:29;3.57;;;2.50;;
77384;SDS011;66443;49.122;8.346;2023-04-03T06:24:55;2.27;;;2.17;;
77384;SDS011;66443;49.122;8.346;2023-04-03T06:27:20;2.43;;;2.23;;
77384;SDS011;66443;49.122;8.346;2023-04-03T06:29:45;2.27;;;2.07;;
77384;SDS011;66443;49.122;8.346;2023-04-03T06:32:10;2.83;;;2.13;;
77384;SDS011;66443;49.122;8.346;2023-04-03T06:34:36;2.78;;;2.58;;
77384;SDS011;66443;49.122;8.346;2023-04-03T06:37:02;3.47;;;3.17;;
77384;SDS011;66443;49.122;8.346;2023-04-03T06:39:27;3.47;;;2.60;;
77384;SDS011;66443;49.122;8.346;2023-04-03T06:41:52;2.83;;;2.60;;
77384;SDS011;66443;49.122;8.346;2023-04-03T06:44:17;3.07;;;2.80;;
77384;SDS011;66443;49.122;8.346;2023-04-03T06:46:43;3.93;;;2.47;;
77384;SDS011;66443;49.122;8.346;2023-04-03T06:49:08;3.17;;;2.70;;
77384;SDS011;66443;49.122;8.346;2023-04-03T06:51:34;2.80;;;2.60;;
77384;SDS011;66443;49.122;8.346;2023-04-03T06:54:00;4.27;;;2.93;;
77384;SDS011;66443;49.122;8.346;2023-04-03T06:56:25;3.13;;;2.60;;
77384;SDS011;66443;49.122;8.346;2023-04-03T06:58:51;3.43;;;3.13;;
77384;SDS011;66443;49.122;8.346;2023-04-03T07:01:16;4.33;;;2.70;;
77384;SDS011;66443;49.122;8.346;2023-04-03T07:03:42;3.07;;;2.77;;
77384;SDS011;66443;49.122;8.346;2023-04-03T07:06:09;3.43;;;2.70;;
77384;SDS011;66443;49.122;8.346;2023-04-03T07:08:35;4.57;;;2.87;;
77384;SDS011;66443;49.122;8.346;2023-04-03T07:11:01;3.43;;;3.20;;
77384;SDS011;66443;49.122;8.346;2023-04-03T07:13:26;2.70;;;2.50;;
77384;SDS011;66443;49.122;8.346;2023-04-03T07:15:51;3.47;;;3.17;;
77384;SDS011;66443;49.122;8.346;2023-04-03T07:18:16;3.27;;;2.97;;
77384;SDS011;66443;49.122;8.346;2023-04-03T07:20:42;3.53;;;3.23;;
77384;SDS011;66443;49.122;8.346;2023-04-03T07:23:07;3.20;;;3.00;;
77384;SDS011;66443;49.122;8.346;2023-04-03T07:25:32;3.00;;;2.80;;
77384;SDS011;66443;49.122;8.346;2023-04-03T07:27:58;3.30;;;3.10;;
77384;SDS011;66443;49.122;8.346;2023-04-03T07:30:23;3.23;;;2.93;;
77384;SDS011;66443;49.122;8.346;2023-04-03T07:32:49;4.10;;;3.10;;
77384;SDS011;66443;49.122;8.346;2023-04-03T07:35:14;2.93;;;2.63;;
77384;SDS011;66443;49.122;8.346;2023-04-03T07:37:40;3.40;;;3.17;;
77384;SDS011;66443;49.122;8.346;2023-04-03T07:40:06;4.00;;;3.63;;
77384;SDS011;66443;49.122;8.346;2023-04-03T07:42:31;3.10;;;2.90;;
77384;SDS011;66443;49.122;8.346;2023-04-03T07:44:56;2.90;;;2.70;;
77384;SDS011;66443;49.122;8.346;2023-04-03T07:47:22;3.53;;;3.23;;
77384;SDS011;66443;49.122;8.346;2023-04-03T07:49:47;3.13;;;2.87;;
77384;SDS011;66443;49.122;8.346;2023-04-03T07:52:13;3.70;;;2.87;;
77384;SDS011;66443;49.122;8.346;2023-04-03T07:54:40;5.17;;;3.33;;
77384;SDS011;66443;49.122;8.346;2023-04-03T07:57:05;4.33;;;2.90;;
77384;SDS011;66443;49.122;8.346;2023-04-03T07:59:31;3.40;;;3.13;;
77384;SDS011;66443;49.122;8.346;2023-04-03T08:01:56;3.30;;;3.10;;
77384;SDS011;66443;49.122;8.346;2023-04-03T08:04:21;2.73;;;2.53;;
77384;SDS011;66443;49.122;8.346;2023-04-03T08:06:47;2.67;;;2.47;;
77384;SDS011;66443;49.122;8.346;2023-04-03T08:09:13;5.37;;;2.70;;
77384;SDS011;66443;49.122;8.346;2023-04-03T08:11:39;3.20;;;2.90;;
77384;SDS011;66443;49.122;8.346;2023-04-03T08:14:04;3.00;;;2.80;;
77384;SDS011;66443;49.122;8.346;2023-04-03T08:16:29;3.27;;;3.03;;
77384;SDS011;66443;49.122;8.346;2023-04-03T08:18:55;7.20;;;3.27;;
77384;SDS011;66443;49.122;8.346;2023-04-03T08:21:20;5.50;;;3.13;;
77384;SDS011;66443;49.122;8.346;2023-04-03T08:23:47;3.63;;;2.60;;
77384;SDS011;66443;49.122;8.346;2023-04-03T08:26:14;5.90;;;2.40;;
77384;SDS011;66443;49.122;8.346;2023-04-03T08:28:39;4.83;;;2.47;;
77384;SDS011;66443;49.122;8.346;2023-04-03T08:31:05;3.40;;;3.10;;
77384;SDS011;66443;49.122;8.346;2023-04-03T08:33:32;3.07;;;2.77;;
77384;SDS011;66443;49.122;8.346;2023-04-03T08:35:57;2.73;;;2.53;;
77384;SDS011;66443;49.122;8.346;2023-04-03T08:38:22;2.87;;;2.60;;
77384;SDS011;66443;49.122;8.346;2023-04-03T08:40:48;2.90;;;2.50;;
77384;SDS011;66443;49.122;8.346;2023-04-03T08:43:38;3.37;;;2.63;;
77384;SDS011;66443;49.122;8.346;2023-04-03T08:46:09;2.60;;;2.33;;
77384;SDS011;66443;49.122;8.346;2023-04-03T08:48:39;2.80;;;2.50;;
77384;SDS011;66443;49.122;8.346;2023-04-03T08:51:10;2.87;;;2.30;;
77384;SDS011;66443;49.122;8.346;2023-04-03T08:53:40;2.87;;;2.63;;
77384;SDS011;66443;49.122;8.346;2023-04-03T08:56:08;3.87;;;2.73;;
77384;SDS011;66443;49.122;8.346;2023-04-03T08:58:40;3.27;;;2.40;;
77384;SDS011;66443;49.122;8.346;2023-04-03T09:01:12;2.20;;;2.00;;
77384;SDS011;66443;49.122;8.346;2023-04-03T09:03:41;2.90;;;2.40;;
77384;SDS011;66443;49.122;8.346;2023-04-03T09:06:07;2.60;;;2.40;;
77384;SDS011;66443;49.122;8.346;2023-04-03T09:08:37;4.20;;;2.07;;
77384;SDS011;66443;49.122;8.346;2023-04-03T09:19:04;3.60;;;2.10;;
77384;SDS011;66443;49.122;8.346;2023-04-03T09:21:34;2.00;;;1.83;;
77384;SDS011;66443;49.122;8.346;2023-04-03T09:24:02;3.83;;;2.13;;
77384;SDS011;66443;49.122;8.346;2023-04-03T09:26:30;2.90;;;2.00;;
77384;SDS011;66443;49.122;8.346;2023-04-03T09:28:58;1.73;;;1.53;;
77384;SDS011;66443;49.122;8.346;2023-04-03T09:31:36;1.90;;;1.70;;
77384;SDS011;66443;49.122;8.346;2023-04-03T09:34:03;3.77;;;1.43;;
77384;SDS011;66443;49.122;8.346;2023-04-03T09:39:05;1.73;;;1.60;;
77384;SDS011;66443;49.122;8.346;2023-04-03T09:41:32;1.60;;;1.47;;
77384;SDS011;66443;49.122;8.346;2023-04-03T09:43:58;1.90;;;1.50;;
77384;SDS011;66443;49.122;8.346;2023-04-03T09:46:25;1.97;;;1.43;;
77384;SDS011;66443;49.122;8.346;2023-04-03T09:49:02;2.10;;;1.90;;
77384;SDS011;66443;49.122;8.346;2023-04-03T09:51:28;1.70;;;1.60;;
77384;SDS011;66443;49.122;8.346;2023-04-03T09:53:53;8.00;;;1.60;;
77384;SDS011;66443;49.122;8.346;2023-04-03T10:06:32;3.27;;;2.00;;
77384;SDS011;66443;49.122;8.346;2023-04-03T10:08:59;2.03;;;1.50;;
77384;SDS011;66443;49.122;8.346;2023-04-03T10:11:25;1.97;;;1.80;;
77384;SDS011;66443;49.122;8.346;2023-04-03T10:13:52;2.60;;;1.60;;
77384;SDS011;66443;49.122;8.346;2023-04-03T10:16:18;1.70;;;1.37;;
77384;SDS011;66443;49.122;8.346;2023-04-03T10:18:55;3.20;;;1.37;;
77384;SDS011;66443;49.122;8.346;2023-04-03T10:21:31;4.90;;;1.50;;
77384;SDS011;66443;49.122;8.346;2023-04-03T10:24:15;2.23;;;1.70;;
77384;SDS011;66443;49.122;8.346;2023-04-03T10:26:45;2.33;;;1.47;;
77384;SDS011;66443;49.122;8.346;2023-04-03T10:32:16;2.07;;;1.30;;
77384;SDS011;66443;49.122;8.346;2023-04-03T10:34:43;1.70;;;1.27;;
77384;SDS011;66443;49.122;8.346;2023-04-03T10:42:13;1.60;;;1.50;;
77384;SDS011;66443;49.122;8.346;2023-04-03T10:44:49;1.40;;;1.23;;
77384;SDS011;66443;49.122;8.346;2023-04-03T10:47:21;1.97;;;1.50;;
77384;SDS011;66443;49.122;8.346;2023-04-03T10:49:52;2.20;;;1.60;;
77384;SDS011;66443;49.122;8.346;2023-04-03T10:57:39;1.93;;;1.43;;
77384;SDS011;66443;49.122;8.346;2023-04-03T11:00:06;1.43;;;1.30;;
77384;SDS011;66443;49.122;8.346;2023-04-03T11:02:39;1.47;;;1.10;;
77384;SDS011;66443;49.122;8.346;2023-04-03T11:05:13;0.97;;;0.97;;
77384;SDS011;66443;49.122;8.346;2023-04-03T11:07:41;2.60;;;1.40;;
77384;SDS011;66443;49.122;8.346;2023-04-03T11:15:11;1.13;;;1.10;;
77384;SDS011;66443;49.122;8.346;2023-04-03T11:17:38;2.70;;;1.10;;
77384;SDS011;66443;49.122;8.346;2023-04-03T11:22:41;1.80;;;1.30;;
77384;SDS011;66443;49.122;8.346;2023-04-03T11:25:14;1.43;;;1.10;;
77384;SDS011;66443;49.122;8.346;2023-04-03T11:27:42;1.50;;;1.20;;
77384;SDS011;66443;49.122;8.346;2023-04-03T11:30:12;1.57;;;1.20;;
77384;SDS011;66443;49.122;8.346;2023-04-03T11:32:52;1.43;;;1.33;;
77384;SDS011;66443;49.122;8.346;2023-04-03T11:35:19;1.90;;;1.33;;
77384;SDS011;66443;49.122;8.346;2023-04-03T11:37:46;1.83;;;1.27;;
77384;SDS011;66443;49.122;8.346;2023-04-03T11:42:40;1.40;;;1.30;;
77384;SDS011;66443;49.122;8.346;2023-04-03T11:53:01;1.57;;;1.20;;
77384;SDS011;66443;49.122;8.346;2023-04-03T12:05:51;1.40;;;1.30;;
77384;SDS011;66443;49.122;8.346;2023-04-03T12:16:04;1.73;;;1.38;;
77384;SDS011;66443;49.122;8.346;2023-04-03T12:18:43;1.30;;;1.10;;
77384;SDS011;66443;49.122;8.346;2023-04-03T12:21:09;1.63;;;1.23;;
77384;SDS011;66443;49.122;8.346;2023-04-03T12:23:35;1.80;;;1.20;;
77384;SDS011;66443;49.122;8.346;2023-04-03T12:26:21;1.43;;;1.33;;
77384;SDS011;66443;49.122;8.346;2023-04-03T12:28:46;1.50;;;1.40;;
77384;SDS011;66443;49.122;8.346;2023-04-03T12:31:13;2.20;;;1.30;;
77384;SDS011;66443;49.122;8.346;2023-04-03T12:36:10;1.40;;;1.20;;
77384;SDS011;66443;49.122;8.346;2023-04-03T12:45:03;1.93;;;1.20;;
77384;SDS011;66443;49.122;8.346;2023-04-03T12:47:14;3.03;;;1.57;;
77384;SDS011;66443;49.122;8.346;2023-04-03T12:49:42;1.53;;;1.43;;
77384;SDS011;66443;49.122;8.346;2023-04-03T12:52:18;4.00;;;1.40;;
77384;SDS011;66443;49.122;8.346;2023-04-03T12:54:44;1.80;;;1.60;;
77384;SDS011;66443;49.122;8.346;2023-04-03T12:57:17;1.40;;;1.17;;
77384;SDS011;66443;49.122;8.346;2023-04-03T12:59:43;2.07;;;1.37;;
77384;SDS011;66443;49.122;8.346;2023-04-03T13:02:24;1.37;;;1.27;;
77384;SDS011;66443;49.122;8.346;2023-04-03T13:04:51;1.60;;;1.50;;
77384;SDS011;66443;49.122;8.346;2023-04-03T13:07:21;1.37;;;1.27;;
77384;SDS011;66443;49.122;8.346;2023-04-03T13:09:54;1.53;;;1.43;;
77384;SDS011;66443;49.122;8.346;2023-04-03T13:12:20;1.40;;;1.30;;
77384;SDS011;66443;49.122;8.346;2023-04-03T13:14:55;1.30;;;1.20;;
77384;SDS011;66443;49.122;8.346;2023-04-03T13:17:21;3.53;;;1.90;;
77384;SDS011;66443;49.122;8.346;2023-04-03T13:19:47;1.53;;;1.40;;
77384;SDS011;66443;49.122;8.346;2023-04-03T13:24:43;1.70;;;1.60;;
77384;SDS011;66443;49.122;8.346;2023-04-03T13:27:10;1.50;;;1.40;;
77384;SDS011;66443;49.122;8.346;2023-04-03T13:29:36;2.07;;;1.50;;
77384;SDS011;66443;49.122;8.346;2023-04-03T13:32:02;5.77;;;1.70;;
77384;SDS011;66443;49.122;8.346;2023-04-03T13:34:35;1.60;;;1.50;;
77384;SDS011;66443;49.122;8.346;2023-04-03T13:37:01;1.53;;;1.40;;
77384;SDS011;66443;49.122;8.346;2023-04-03T13:39:29;1.50;;;1.40;;
77384;SDS011;66443;49.122;8.346;2023-04-03T13:42:14;1.80;;;1.50;;
77384;SDS011;66443;49.122;8.346;2023-04-03T13:44:40;1.77;;;1.63;;
77384;SDS011;66443;49.122;8.346;2023-04-03T13:49:41;1.90;;;1.50;;
77384;SDS011;66443;49.122;8.346;2023-04-03T13:54:47;1.97;;;1.40;;
77384;SDS011;66443;49.122;8.346;2023-04-03T13:57:16;2.70;;;1.47;;
77384;SDS011;66443;49.122;8.346;2023-04-03T13:59:42;1.37;;;1.20;;
77384;SDS011;66443;49.122;8.346;2023-04-03T14:04:47;2.03;;;1.70;;
77384;SDS011;66443;49.122;8.346;2023-04-03T14:07:13;2.67;;;1.70;;
77384;SDS011;66443;49.122;8.346;2023-04-03T14:09:38;2.37;;;1.60;;
77384;SDS011;66443;49.122;8.346;2023-04-03T14:12:08;2.27;;;1.60;;
77384;SDS011;66443;49.122;8.346;2023-04-03T14:14:37;1.73;;;1.50;;
77384;SDS011;66443;49.122;8.346;2023-04-03T14:17:13;2.17;;;1.60;;
77384;SDS011;66443;49.122;8.346;2023-04-03T14:19:38;2.07;;;1.80;;
77384;SDS011;66443;49.122;8.346;2023-04-03T14:22:11;1.40;;;1.27;;
77384;SDS011;66443;49.122;8.346;2023-04-03T14:24:37;1.60;;;1.43;;
77384;SDS011;66443;49.122;8.346;2023-04-03T14:27:05;2.03;;;1.50;;
77384;SDS011;66443;49.122;8.346;2023-04-03T14:29:38;2.73;;;2.17;;
77384;SDS011;66443;49.122;8.346;2023-04-03T14:32:05;2.00;;;1.80;;
77384;SDS011;66443;49.122;8.346;2023-04-03T14:34:33;1.43;;;1.33;;
77384;SDS011;66443;49.122;8.346;2023-04-03T14:36:58;1.40;;;1.30;;
77384;SDS011;66443;49.122;8.346;2023-04-03T14:39:26;2.43;;;1.33;;
77384;SDS011;66443;49.122;8.346;2023-04-03T14:41:51;1.47;;;1.37;;
77384;SDS011;66443;49.122;8.346;2023-04-03T14:44:17;1.40;;;1.30;;
77384;SDS011;66443;49.122;8.346;2023-04-03T14:46:42;2.17;;;1.50;;
77384;SDS011;66443;49.122;8.346;2023-04-03T14:49:18;1.43;;;1.30;;
77384;SDS011;66443;49.122;8.346;2023-04-03T14:51:45;1.57;;;1.30;;
77384;SDS011;66443;49.122;8.346;2023-04-03T14:54:12;1.73;;;1.63;;
77384;SDS011;66443;49.122;8.346;2023-04-03T14:56:38;1.50;;;1.40;;
77384;SDS011;66443;49.122;8.346;2023-04-03T14:59:04;2.10;;;1.30;;
77384;SDS011;66443;49.122;8.346;2023-04-03T15:01:29;5.23;;;1.73;;
77384;SDS011;66443;49.122;8.346;2023-04-03T15:03:55;2.17;;;1.67;;
77384;SDS011;66443;49.122;8.346;2023-04-03T15:06:20;2.07;;;1.83;;
77384;SDS011;66443;49.122;8.346;2023-04-03T15:08:46;1.20;;;1.10;;
77384;SDS011;66443;49.122;8.346;2023-04-03T15:11:12;3.07;;;1.33;;
77384;SDS011;66443;49.122;8.346;2023-04-03T15:13:38;2.17;;;1.10;;
77384;SDS011;66443;49.122;8.346;2023-04-03T15:16:04;1.43;;;1.20;;
77384;SDS011;66443;49.122;8.346;2023-04-03T15:18:30;2.17;;;1.55;;
77384;SDS011;66443;49.122;8.346;2023-04-03T15:20:57;1.42;;;1.25;;
77384;SDS011;66443;49.122;8.346;2023-04-03T15:23:22;1.38;;;1.27;;
77384;SDS011;66443;49.122;8.346;2023-04-03T15:25:51;2.97;;;1.58;;
77384;SDS011;66443;49.122;8.346;2023-04-03T15:28:18;1.73;;;1.58;;
77384;SDS011;66443;49.122;8.346;2023-04-03T15:30:46;1.77;;;1.30;;
77384;SDS011;66443;49.122;8.346;2023-04-03T15:33:11;2.47;;;1.53;;
77384;SDS011;66443;49.122;8.346;2023-04-03T15:35:36;1.33;;;1.23;;
77384;SDS011;66443;49.122;8.346;2023-04-03T15:38:02;1.23;;;1.13;;
77384;SDS011;66443;49.122;8.346;2023-04-03T15:40:27;1.67;;;1.47;;
77384;SDS011;66443;49.122;8.346;2023-04-03T15:42:52;1.63;;;1.30;;
77384;SDS011;66443;49.122;8.346;2023-04-03T15:45:17;2.80;;;1.67;;
77384;SDS011;66443;49.122;8.346;2023-04-03T15:47:42;3.40;;;2.30;;
77384;SDS011;66443;49.122;8.346;2023-04-03T15:50:08;3.83;;;3.17;;
77384;SDS011;66443;49.122;8.346;2023-04-03T15:52:34;5.13;;;2.90;;
77384;SDS011;66443;49.122;8.346;2023-04-03T15:55:00;1.83;;;1.50;;
77384;SDS011;66443;49.122;8.346;2023-04-03T15:57:25;1.50;;;1.40;;
77384;SDS011;66443;49.122;8.346;2023-04-03T15:59:51;1.73;;;1.40;;
77384;SDS011;66443;49.122;8.346;2023-04-03T16:02:16;1.43;;;1.33;;
77384;SDS011;66443;49.122;8.346;2023-04-03T16:04:42;1.50;;;1.40;;
77384;SDS011;66443;49.122;8.346;2023-04-03T16:07:07;1.57;;;1.30;;
77384;SDS011;66443;49.122;8.346;2023-04-03T16:09:32;2.33;;;1.30;;
77384;SDS011;66443;49.122;8.346;2023-04-03T16:11:58;1.70;;;1.50;;
77384;SDS011;66443;49.122;8.346;2023-04-03T16:14:25;1.63;;;1.20;;
77384;SDS011;66443;49.122;8.346;2023-04-03T16:16:50;3.00;;;1.70;;
77384;SDS011;66443;49.122;8.346;2023-04-03T16:19:15;1.60;;;1.30;;
77384;SDS011;66443;49.122;8.346;2023-04-03T16:21:41;1.60;;;1.50;;
77384;SDS011;66443;49.122;8.346;2023-04-03T16:24:06;2.03;;;1.33;;